createdAt,value
2018-12-02T00:00:53.531Z,79.27
2018-12-02T00:03:22.754Z,60.93
2018-12-02T00:05:51.759Z,60.07
2018-12-02T00:08:20.739Z,71.50
2018-12-02T00:10:49.927Z,60.73
2018-12-02T00:13:18.960Z,60.10
2018-12-02T00:15:48.039Z,58.03
2018-12-02T00:18:17.239Z,53.00
2018-12-02T00:20:46.323Z,53.10
2018-12-02T00:23:15.438Z,47.27
2018-12-02T00:25:44.552Z,48.77
2018-12-02T00:28:13.750Z,42.03
2018-12-02T00:30:42.917Z,40.20
2018-12-02T00:33:12.515Z,43.27
2018-12-02T00:35:41.511Z,42.53
2018-12-02T00:38:10.594Z,43.83
2018-12-02T00:40:39.938Z,38.73
2018-12-02T00:43:09.203Z,34.73
2018-12-02T00:45:38.604Z,32.47
2018-12-02T00:48:09.340Z,26.37
2018-12-02T00:50:38.530Z,27.97
2018-12-02T00:53:08.859Z,25.90
2018-12-02T00:55:42.247Z,25.77
2018-12-02T00:58:11.479Z,30.40
2018-12-02T01:00:40.535Z,32.57
2018-12-02T01:03:10.355Z,28.30
2018-12-02T01:05:39.453Z,30.20
2018-12-02T01:08:08.742Z,33.17
2018-12-02T01:10:38.053Z,35.73
2018-12-02T01:13:09.716Z,34.80
2018-12-02T01:15:39.799Z,33.60
2018-12-02T01:18:09.199Z,32.40
2018-12-02T01:20:38.907Z,30.43
2018-12-02T01:23:08.335Z,33.03
2018-12-02T01:25:38.739Z,31.27
2018-12-02T01:28:08.370Z,31.47
2018-12-02T01:30:37.354Z,29.53
2018-12-02T01:33:06.559Z,28.37
2018-12-02T01:35:35.839Z,28.57
2018-12-02T01:38:05.002Z,25.77
2018-12-02T01:40:34.042Z,29.03
2018-12-02T01:43:03.131Z,27.30
2018-12-02T01:45:32.438Z,29.80
2018-12-02T01:48:01.630Z,31.70
2018-12-02T01:50:30.744Z,29.20
2018-12-02T01:52:59.819Z,28.03
2018-12-02T01:55:28.835Z,27.40
2018-12-02T01:57:58.108Z,28.30
2018-12-02T02:00:28.289Z,26.37
2018-12-02T02:02:57.839Z,30.60
2018-12-02T02:05:27.334Z,30.43
2018-12-02T02:07:56.479Z,26.03
2018-12-02T02:10:27.431Z,25.63
2018-12-02T02:12:56.687Z,26.90
2018-12-02T02:15:25.916Z,29.67
2018-12-02T02:17:54.979Z,28.50
2018-12-02T02:20:25.749Z,29.13
2018-12-02T02:22:55.006Z,25.67
2018-12-02T02:25:24.607Z,27.20
2018-12-02T02:27:56.067Z,24.93
2018-12-02T02:30:28.556Z,26.20
2018-12-02T02:32:57.715Z,24.73
2018-12-02T02:35:26.817Z,27.10
2018-12-02T02:37:57.078Z,28.70
2018-12-02T02:40:27.237Z,28.30
2018-12-02T02:42:56.460Z,24.70
2018-12-02T02:45:25.657Z,27.87
2018-12-02T02:47:54.955Z,23.50
2018-12-02T02:50:24.981Z,28.83
2018-12-02T02:52:58.060Z,24.73
2018-12-02T02:55:27.359Z,24.70
2018-12-02T02:57:56.556Z,21.10
2018-12-02T03:00:27.184Z,25.33
2018-12-02T03:02:56.383Z,23.00
2018-12-02T03:05:25.579Z,27.73
2018-12-02T03:07:54.687Z,25.00
2018-12-02T03:10:23.770Z,27.97
2018-12-02T03:12:53.778Z,25.90
2018-12-02T03:15:23.487Z,23.23
2018-12-02T03:17:53.318Z,19.60
2018-12-02T03:20:22.963Z,20.23
2018-12-02T03:22:55.799Z,18.00
2018-12-02T03:25:26.518Z,18.00
2018-12-02T03:27:55.826Z,23.10
2018-12-02T03:30:25.796Z,21.77
2018-12-02T03:32:54.988Z,18.03
2018-12-02T03:35:26.396Z,16.47
2018-12-02T03:37:56.508Z,22.30
2018-12-02T03:40:27.341Z,17.93
2018-12-02T03:42:56.686Z,17.07
2018-12-02T03:45:27.545Z,14.87
2018-12-02T03:47:57.076Z,19.97
2018-12-02T03:50:26.170Z,13.90
2018-12-02T03:52:55.378Z,16.10
2018-12-02T03:55:24.456Z,14.53
2018-12-02T03:57:53.872Z,20.10
2018-12-02T04:00:24.051Z,19.47
2018-12-02T04:02:53.887Z,16.40
2018-12-02T04:05:23.979Z,15.10
2018-12-02T04:07:53.327Z,15.97
2018-12-02T04:10:22.844Z,11.97
2018-12-02T04:12:52.905Z,14.63
2018-12-02T04:15:22.955Z,14.00
2018-12-02T04:17:51.944Z,15.13
2018-12-02T04:20:21.443Z,18.73
2018-12-02T04:22:51.327Z,12.27
2018-12-02T04:25:27.523Z,18.40
2018-12-02T04:27:56.499Z,16.37
2018-12-02T04:30:25.684Z,14.53
2018-12-02T04:32:54.876Z,17.43
2018-12-02T04:35:25.636Z,19.13
2018-12-02T04:37:54.631Z,16.93
2018-12-02T04:40:23.731Z,16.47
2018-12-02T04:42:52.719Z,14.43
2018-12-02T04:45:21.939Z,20.03
2018-12-02T04:47:51.099Z,14.40
2018-12-02T04:50:21.846Z,15.13
2018-12-02T04:52:50.844Z,20.20
2018-12-02T04:55:20.033Z,17.23
2018-12-02T04:57:49.549Z,15.00
2018-12-02T05:00:19.511Z,18.33
2018-12-02T05:02:49.573Z,14.43
2018-12-02T05:05:20.522Z,17.57
2018-12-02T05:07:49.803Z,15.10
2018-12-02T05:10:19.718Z,16.03
2018-12-02T05:12:48.911Z,16.37
2018-12-02T05:15:19.654Z,18.30
2018-12-02T05:17:48.862Z,13.87
2018-12-02T05:20:20.672Z,17.93
2018-12-02T05:22:49.811Z,15.13
2018-12-02T05:25:19.353Z,14.73
2018-12-02T05:27:48.507Z,15.43
2018-12-02T05:30:18.418Z,16.53
2018-12-02T05:32:48.298Z,15.23
2018-12-02T05:35:17.428Z,14.23
2018-12-02T05:37:46.387Z,14.13
2018-12-02T05:40:17.326Z,17.10
2018-12-02T05:42:46.343Z,16.60
2018-12-02T05:45:16.361Z,19.30
2018-12-02T05:47:45.568Z,16.53
2018-12-02T05:50:22.129Z,17.50
2018-12-02T05:52:56.243Z,18.37
2018-12-02T05:55:29.322Z,21.17
2018-12-02T05:57:58.453Z,20.10
2018-12-02T06:00:27.398Z,17.97
2018-12-02T06:02:56.502Z,19.77
2018-12-02T06:05:25.491Z,15.87
2018-12-02T06:07:54.590Z,15.57
2018-12-02T06:10:23.792Z,18.00
2018-12-02T06:12:52.879Z,19.40
2018-12-02T06:15:22.243Z,19.27
2018-12-02T06:17:51.275Z,18.97
2018-12-02T06:20:24.448Z,19.30
2018-12-02T06:22:54.497Z,19.67
2018-12-02T06:25:23.579Z,21.33
2018-12-02T06:27:52.786Z,22.70
2018-12-02T06:30:22.687Z,18.00
2018-12-02T06:32:53.701Z,18.27
2018-12-02T06:35:22.827Z,18.87
2018-12-02T06:37:52.871Z,17.63
2018-12-02T06:40:22.882Z,19.87
2018-12-02T06:42:52.366Z,24.07
2018-12-02T06:45:21.666Z,25.17
2018-12-02T06:47:50.854Z,26.23
2018-12-02T06:50:23.663Z,26.17
2018-12-02T06:52:53.246Z,22.43
2018-12-02T06:55:36.520Z,26.37
2018-12-02T06:58:12.407Z,22.63
2018-12-02T07:01:18.884Z,20.13
2018-12-02T07:03:56.683Z,23.10
2018-12-02T07:06:25.849Z,22.57
2018-12-02T07:08:54.879Z,28.80
2018-12-02T07:11:23.975Z,26.03
2018-12-02T07:13:53.080Z,23.07
2018-12-02T07:16:22.163Z,27.37
2018-12-02T07:18:53.395Z,22.63
2018-12-02T07:21:28.975Z,31.77
2018-12-02T07:23:59.183Z,26.03
2018-12-02T07:26:31.791Z,27.83
2018-12-02T07:29:00.859Z,25.60
2018-12-02T07:31:30.047Z,24.77
2018-12-02T07:33:59.146Z,21.87
2018-12-02T07:36:28.244Z,26.67
2018-12-02T07:39:08.295Z,24.93
2018-12-02T07:41:37.498Z,24.87
2018-12-02T07:44:06.783Z,28.20
2018-12-02T07:46:35.883Z,24.60
2018-12-02T07:49:05.174Z,23.87
2018-12-02T07:51:34.289Z,23.07
2018-12-02T07:54:03.367Z,26.80
2018-12-02T07:56:33.171Z,23.60
2018-12-02T07:59:02.171Z,25.13
2018-12-02T08:01:31.254Z,25.80
2018-12-02T08:04:00.359Z,26.10
2018-12-02T08:06:29.443Z,28.40
2018-12-02T08:08:58.556Z,25.47
2018-12-02T08:11:27.650Z,26.67
2018-12-02T08:13:56.736Z,24.03
2018-12-02T08:16:25.902Z,26.57
2018-12-02T08:18:55.023Z,29.97
2018-12-02T08:21:24.163Z,29.50
2018-12-02T08:23:53.206Z,30.40
2018-12-02T08:26:22.267Z,25.63
2018-12-02T08:28:51.417Z,28.13
2018-12-02T08:31:20.491Z,29.90
2018-12-02T08:33:49.596Z,32.17
2018-12-02T08:36:18.704Z,30.87
2018-12-02T08:38:47.883Z,27.43
2018-12-02T08:41:16.984Z,26.97
2018-12-02T08:43:46.079Z,23.83
2018-12-02T08:46:15.064Z,23.90
2018-12-02T08:48:44.151Z,26.03
2018-12-02T08:51:13.148Z,30.50
2018-12-02T08:53:42.251Z,32.60
2018-12-02T08:56:11.339Z,28.30
2018-12-02T08:58:40.442Z,26.90
2018-12-02T09:01:09.631Z,24.53
2018-12-02T09:03:38.751Z,25.50
2018-12-02T09:06:08.022Z,22.77
2018-12-02T09:08:37.224Z,26.33
2018-12-02T09:11:06.363Z,24.23
2018-12-02T09:13:35.417Z,23.70
2018-12-02T09:16:04.611Z,30.47
2018-12-02T09:18:34.220Z,25.67
2018-12-02T09:21:03.319Z,27.23
2018-12-02T09:23:34.064Z,28.43
2018-12-02T09:26:03.142Z,24.00
2018-12-02T09:28:32.127Z,22.63
2018-12-02T09:31:01.223Z,19.67
2018-12-02T09:33:30.324Z,23.90
2018-12-02T09:35:59.415Z,25.53
2018-12-02T09:38:28.507Z,25.77
2018-12-02T09:40:57.707Z,24.03
2018-12-02T09:43:26.803Z,23.87
2018-12-02T09:45:56.407Z,25.00
2018-12-02T09:48:25.735Z,24.47
2018-12-02T09:50:54.811Z,23.67
2018-12-02T09:53:23.817Z,24.83
2018-12-02T09:55:52.887Z,23.50
2018-12-02T09:58:26.847Z,22.63
2018-12-02T10:00:57.495Z,21.77
2018-12-02T10:03:26.726Z,23.60
2018-12-02T10:05:55.819Z,22.63
2018-12-02T10:08:24.949Z,23.57
2018-12-02T10:10:53.896Z,21.40
2018-12-02T10:13:23.834Z,23.13
2018-12-02T10:15:53.312Z,24.50
2018-12-02T10:18:22.632Z,23.43
2018-12-02T10:20:51.843Z,24.40
2018-12-02T10:23:21.007Z,21.63
2018-12-02T10:25:50.115Z,23.53
2018-12-02T10:28:19.314Z,25.37
2018-12-02T10:30:48.510Z,22.23
2018-12-02T10:33:17.699Z,23.27
2018-12-02T10:35:47.087Z,25.00
2018-12-02T10:38:16.319Z,23.13
2018-12-02T10:40:45.487Z,25.27
2018-12-02T10:43:14.591Z,23.77
2018-12-02T10:45:43.883Z,23.30
2018-12-02T10:48:13.395Z,26.97
2018-12-02T10:50:42.490Z,22.97
2018-12-02T10:53:19.673Z,26.67
2018-12-02T10:55:54.056Z,26.00
2018-12-02T10:58:28.255Z,21.87
2018-12-02T11:01:03.655Z,23.30
2018-12-02T11:03:33.057Z,22.63
2018-12-02T11:06:02.236Z,27.43
2018-12-02T11:08:31.408Z,25.37
2018-12-02T11:11:00.540Z,25.10
2018-12-02T11:13:29.687Z,23.13
2018-12-02T11:15:58.717Z,26.60
2018-12-02T11:18:27.820Z,21.97
2018-12-02T11:20:57.036Z,22.23
2018-12-02T11:23:26.115Z,21.03
2018-12-02T11:25:55.199Z,24.90
2018-12-02T11:28:24.239Z,24.17
2018-12-02T11:30:53.297Z,23.30
2018-12-02T11:33:22.489Z,20.63
2018-12-02T11:35:51.478Z,24.50
2018-12-02T11:38:20.559Z,22.77
2018-12-02T11:40:49.778Z,21.90
2018-12-02T11:43:18.743Z,21.07
2018-12-02T11:45:47.862Z,24.40
2018-12-02T11:48:16.960Z,21.87
2018-12-02T11:50:46.547Z,24.37
2018-12-02T11:53:15.547Z,20.27
2018-12-02T11:55:44.634Z,20.27
2018-12-02T11:58:13.751Z,22.87
2018-12-02T12:00:43.051Z,23.43
2018-12-02T12:03:12.255Z,24.80
2018-12-02T12:05:41.323Z,26.10
2018-12-02T12:08:11.520Z,26.07
2018-12-02T12:10:40.435Z,22.30
2018-12-02T12:13:09.534Z,25.07
2018-12-02T12:15:38.739Z,21.23
2018-12-02T12:18:09.823Z,26.80
2018-12-02T12:20:41.073Z,23.57
2018-12-02T12:23:25.575Z,24.47
2018-12-02T12:25:54.666Z,25.83
2018-12-02T12:28:23.664Z,26.07
2018-12-02T12:30:52.856Z,19.17
2018-12-02T12:33:22.046Z,23.83
2018-12-02T12:35:51.776Z,22.10
2018-12-02T12:38:20.847Z,24.00
2018-12-02T12:40:51.786Z,26.27
2018-12-02T12:43:32.967Z,21.63
2018-12-02T12:46:02.880Z,22.43
2018-12-02T12:48:31.971Z,23.87
2018-12-02T12:51:00.975Z,24.73
2018-12-02T12:53:30.059Z,21.77
2018-12-02T12:55:59.150Z,26.10
2018-12-02T12:58:28.258Z,28.87
2018-12-02T13:00:57.346Z,27.57
2018-12-02T13:03:26.442Z,30.67
2018-12-02T13:05:55.535Z,29.30
2018-12-02T13:08:24.742Z,25.10
2018-12-02T13:10:53.941Z,25.77
2018-12-02T13:13:23.023Z,30.27
2018-12-02T13:15:52.232Z,31.93
2018-12-02T13:18:21.215Z,32.03
2018-12-02T13:20:55.085Z,28.87
2018-12-02T13:23:24.550Z,34.77
2018-12-02T13:25:53.715Z,33.30
2018-12-02T13:28:22.820Z,34.77
2018-12-02T13:30:52.011Z,33.40
2018-12-02T13:33:21.217Z,32.23
2018-12-02T13:35:50.258Z,29.93
2018-12-02T13:38:19.659Z,31.33
2018-12-02T13:40:48.836Z,29.37
2018-12-02T13:43:20.128Z,29.80
2018-12-02T13:45:49.862Z,30.13
2018-12-02T13:48:18.959Z,27.93
2018-12-02T13:50:48.065Z,33.03
2018-12-02T13:53:17.028Z,30.07
2018-12-02T13:55:46.026Z,26.67
2018-12-02T13:58:15.217Z,28.03
2018-12-02T14:00:44.519Z,32.73
2018-12-02T14:03:15.458Z,31.40
2018-12-02T14:05:46.478Z,32.83
2018-12-02T14:08:15.599Z,25.80
2018-12-02T14:10:45.179Z,29.07
2018-12-02T14:13:18.360Z,28.67
2018-12-02T14:16:30.714Z,23.87
2018-12-02T14:19:02.354Z,24.87
2018-12-02T14:21:31.557Z,25.50
2018-12-02T14:24:00.643Z,24.23
2018-12-02T14:26:29.748Z,22.90
2018-12-02T14:29:04.519Z,22.83
2018-12-02T14:31:35.483Z,28.47
2018-12-02T14:34:04.914Z,30.07
2018-12-02T14:36:33.995Z,27.10
2018-12-02T14:39:03.412Z,21.03
2018-12-02T14:41:32.503Z,22.70
2018-12-02T14:44:01.587Z,24.27
2018-12-02T14:46:30.699Z,22.97
2018-12-02T14:48:59.775Z,24.13
2018-12-02T14:51:28.880Z,24.77
2018-12-02T14:53:57.975Z,25.10
2018-12-02T14:56:27.060Z,23.80
2018-12-02T14:58:56.887Z,22.70
2018-12-02T15:01:26.328Z,23.23
2018-12-02T15:03:55.271Z,19.90
2018-12-02T15:06:24.364Z,25.90
2018-12-02T15:08:53.463Z,21.23
2018-12-02T15:11:22.652Z,23.57
2018-12-02T15:13:51.755Z,21.90
2018-12-02T15:16:20.841Z,21.07
2018-12-02T15:18:49.949Z,21.17
2018-12-02T15:21:19.130Z,21.97
2018-12-02T15:23:48.234Z,24.23
2018-12-02T15:26:17.430Z,27.70
2018-12-02T15:28:46.515Z,22.60
2018-12-02T15:31:15.743Z,21.50
2018-12-02T15:33:44.911Z,23.00
2018-12-02T15:36:13.935Z,18.87
2018-12-02T15:38:42.891Z,17.53
2018-12-02T15:41:11.879Z,21.13
2018-12-02T15:43:41.678Z,19.50
2018-12-02T15:46:10.683Z,23.63
2018-12-02T15:48:39.690Z,19.97
2018-12-02T15:51:08.655Z,21.90
2018-12-02T15:53:37.766Z,18.57
2018-12-02T15:56:07.067Z,19.07
2018-12-02T15:58:36.075Z,20.53
2018-12-02T16:01:05.270Z,20.70
2018-12-02T16:03:34.351Z,22.23
2018-12-02T16:06:03.572Z,20.70
2018-12-02T16:08:32.746Z,21.40
2018-12-02T16:11:01.850Z,20.23
2018-12-02T16:13:30.943Z,25.07
2018-12-02T16:15:59.944Z,21.93
2018-12-02T16:18:29.034Z,23.97
2018-12-02T16:20:58.127Z,23.47
2018-12-02T16:23:27.702Z,26.30
2018-12-02T16:25:56.832Z,25.00
2018-12-02T16:28:25.788Z,28.00
2018-12-02T16:30:55.634Z,28.37
2018-12-02T16:33:24.720Z,26.70
2018-12-02T16:35:53.914Z,28.63
2018-12-02T16:38:23.019Z,27.67
2018-12-02T16:40:52.107Z,28.93
2018-12-02T16:43:21.327Z,30.10
2018-12-02T16:45:50.399Z,28.70
2018-12-02T16:48:19.499Z,29.60
2018-12-02T16:50:49.195Z,34.53
2018-12-02T16:53:19.702Z,29.60
2018-12-02T16:56:23.220Z,30.80
2018-12-02T16:59:00.068Z,35.50
2018-12-02T17:01:30.522Z,33.03
2018-12-02T17:04:00.979Z,33.33
2018-12-02T17:06:29.943Z,31.27
2018-12-02T17:08:59.451Z,32.40
2018-12-02T17:11:28.654Z,29.90
2018-12-02T17:13:58.318Z,34.23
2018-12-02T17:16:27.352Z,29.73
2018-12-02T17:18:56.387Z,31.83
2018-12-02T17:21:25.348Z,37.07
2018-12-02T17:23:54.327Z,29.30
2018-12-02T17:26:23.326Z,35.90
2018-12-02T17:28:52.403Z,39.30
2018-12-02T17:31:23.459Z,37.30
2018-12-02T17:33:52.661Z,41.40
2018-12-02T17:36:21.643Z,37.97
2018-12-02T17:38:52.506Z,38.70
2018-12-02T17:41:21.599Z,34.30
2018-12-02T17:43:50.667Z,37.50
2018-12-02T17:46:19.666Z,38.07
2018-12-02T17:48:48.687Z,37.27
2018-12-02T17:51:17.744Z,42.33
2018-12-02T17:53:46.963Z,36.63
2018-12-02T17:56:16.050Z,37.93
2018-12-02T17:58:45.139Z,40.50
2018-12-02T18:01:14.331Z,38.60
2018-12-02T18:03:43.434Z,40.23
2018-12-02T18:06:12.631Z,36.80
2018-12-02T18:08:41.707Z,39.77
2018-12-02T18:11:10.843Z,43.20
2018-12-02T18:13:40.099Z,35.20
2018-12-02T18:16:09.295Z,39.13
2018-12-02T18:18:38.407Z,43.03
2018-12-02T18:21:07.593Z,39.23
2018-12-02T18:23:36.696Z,42.40
2018-12-02T18:26:06.199Z,41.23
2018-12-02T18:28:35.411Z,38.90
2018-12-02T18:31:04.695Z,47.40
2018-12-02T18:33:34.377Z,43.97
2018-12-02T18:36:16.317Z,43.70
2018-12-02T18:38:46.509Z,44.60
2018-12-02T18:41:25.448Z,45.10
2018-12-02T18:43:54.527Z,43.00
2018-12-02T18:46:23.742Z,40.40
2018-12-02T18:48:52.823Z,37.73
2018-12-02T18:51:22.066Z,42.60
2018-12-02T18:53:51.339Z,39.70
2018-12-02T18:56:20.408Z,46.70
2018-12-02T18:58:49.616Z,37.30
2018-12-02T19:01:18.823Z,41.63
2018-12-02T19:03:47.944Z,35.97
2018-12-02T19:06:17.217Z,38.80
2018-12-02T19:08:46.643Z,44.47
2018-12-02T19:11:15.703Z,36.33
2018-12-02T19:13:44.913Z,42.07
2018-12-02T19:16:14.227Z,45.10
2018-12-02T19:18:44.107Z,40.33
2018-12-02T19:21:15.471Z,39.13
2018-12-02T19:23:44.555Z,38.33
2018-12-02T19:26:13.663Z,36.63
2018-12-02T19:28:42.752Z,43.03
2018-12-02T19:31:11.968Z,45.73
2018-12-02T19:33:41.132Z,38.73
2018-12-02T19:36:15.533Z,44.70
2018-12-02T19:38:44.656Z,42.27
2018-12-02T19:41:13.658Z,41.17
2018-12-02T19:43:42.880Z,39.47
2018-12-02T19:46:12.034Z,36.20
2018-12-02T19:48:41.264Z,39.70
2018-12-02T19:51:10.323Z,41.47
2018-12-02T19:53:39.531Z,40.87
2018-12-02T19:56:08.534Z,36.37
2018-12-02T19:58:37.498Z,43.40
2018-12-02T20:01:06.706Z,38.10
2018-12-02T20:03:35.902Z,44.77
2018-12-02T20:06:05.104Z,39.17
2018-12-02T20:08:34.318Z,38.57
2018-12-02T20:11:03.535Z,40.93
2018-12-02T20:13:32.838Z,39.97
2018-12-02T20:16:06.907Z,42.63
2018-12-02T20:18:36.392Z,43.40
2018-12-02T20:21:05.903Z,42.50
2018-12-02T20:23:40.265Z,37.30
2018-12-02T20:26:09.546Z,41.67
2018-12-02T20:28:45.166Z,35.57
2018-12-02T20:31:16.003Z,43.13
2018-12-02T20:33:45.207Z,39.50
2018-12-02T20:36:14.444Z,42.00
2018-12-02T20:38:43.518Z,43.27
2018-12-02T20:41:12.708Z,44.57
2018-12-02T20:43:41.993Z,36.37
2018-12-02T20:46:11.121Z,42.97
2018-12-02T20:48:40.295Z,40.50
2018-12-02T20:51:09.375Z,38.80
2018-12-02T20:53:38.477Z,42.70
2018-12-02T20:56:07.659Z,40.50
2018-12-02T20:58:36.878Z,37.63
2018-12-02T21:01:06.062Z,40.77
2018-12-02T21:03:37.809Z,42.00
2018-12-02T21:06:15.695Z,40.97
2018-12-02T21:08:44.703Z,43.80
2018-12-02T21:11:13.912Z,40.83
2018-12-02T21:13:42.915Z,36.60
2018-12-02T21:16:11.993Z,37.90
2018-12-02T21:18:40.983Z,37.63
2018-12-02T21:21:10.096Z,36.60
2018-12-02T21:23:39.193Z,39.70
2018-12-02T21:26:09.478Z,35.50
2018-12-02T21:28:39.631Z,35.13
2018-12-02T21:31:08.606Z,37.80
2018-12-02T21:33:37.811Z,35.00
2018-12-02T21:36:07.411Z,35.60
2018-12-02T21:38:36.492Z,33.53
2018-12-02T21:41:05.798Z,37.00
2018-12-02T21:43:35.010Z,33.27
2018-12-02T21:46:04.237Z,34.87
2018-12-02T21:48:33.191Z,35.00
2018-12-02T21:51:02.176Z,36.20
2018-12-02T21:53:31.171Z,32.70
2018-12-02T21:56:00.545Z,39.47
2018-12-02T21:58:29.667Z,39.80
2018-12-02T22:01:03.881Z,33.03
2018-12-02T22:03:32.943Z,34.83
2018-12-02T22:06:01.970Z,35.70
2018-12-02T22:08:30.967Z,36.10
2018-12-02T22:11:00.068Z,33.20
2018-12-02T22:13:29.251Z,35.40
2018-12-02T22:15:58.407Z,31.90
2018-12-02T22:18:27.435Z,32.33
2018-12-02T22:20:56.634Z,31.27
2018-12-02T22:23:26.342Z,30.70
2018-12-02T22:25:55.339Z,29.90
2018-12-02T22:28:24.490Z,33.53
2018-12-02T22:30:53.543Z,29.53
2018-12-02T22:33:22.631Z,31.23
2018-12-02T22:35:51.814Z,33.53
2018-12-02T22:38:21.023Z,31.23
2018-12-02T22:40:50.115Z,30.67
2018-12-02T22:43:19.204Z,32.30
2018-12-02T22:45:48.807Z,31.40
2018-12-02T22:48:17.799Z,31.20
2018-12-02T22:50:47.011Z,31.37
2018-12-02T22:53:16.111Z,30.07
2018-12-02T22:55:45.187Z,29.00
2018-12-02T22:58:14.287Z,32.00
2018-12-02T23:00:49.361Z,31.03
2018-12-02T23:03:18.519Z,29.17
2018-12-02T23:05:48.349Z,31.57
2018-12-02T23:08:17.438Z,26.27
2018-12-02T23:10:46.522Z,27.73
2018-12-02T23:13:15.605Z,25.80
2018-12-02T23:15:44.608Z,26.67
2018-12-02T23:18:14.108Z,28.57
2018-12-02T23:20:43.209Z,25.53
2018-12-02T23:23:13.014Z,31.07
2018-12-02T23:25:42.224Z,29.03
2018-12-02T23:28:11.305Z,27.03
2018-12-02T23:30:40.490Z,26.77
2018-12-02T23:33:09.611Z,32.07
2018-12-02T23:35:38.791Z,30.93
2018-12-02T23:38:07.890Z,29.57
2018-12-02T23:40:37.001Z,32.73
2018-12-02T23:43:06.391Z,23.93
2018-12-02T23:45:35.583Z,30.13
2018-12-02T23:48:04.771Z,32.70
2018-12-02T23:50:33.875Z,29.97
2018-12-02T23:53:02.971Z,30.80
2018-12-02T23:55:32.063Z,29.57
2018-12-02T23:58:01.267Z,30.73
